Time;durP1;ratioP1;P1;durP2;ratioP2;P2;SDS_P1;SDS_P2;PMS_P1;PMS_P2;Temp;Humidity;BMP_temperature;BMP_pressure;BME280_temperature;BME280_humidity;BME280_pressure;Samples;Min_cycle;Max_cycle;Signal;HPM_P1;HPM_P2
2023/12/15 00:02:07;;;;;;;;;;;16.30;62.70;;;;;;10280743;28;89611;-42
2023/12/15 00:07:09;;;;;;;;;;;16.20;62.70;;;;;;10277451;28;89094;-44
2023/12/15 00:12:10;;;;;;;;;;;16.20;62.60;;;;;;10283368;28;89280;-47
2023/12/15 00:17:12;;;;;;;;;;;16.20;62.70;;;;;;10285638;28;90713;-43
2023/12/15 00:22:14;;;;;;;;;;;16.20;62.80;;;;;;10285730;28;89626;-44
2023/12/15 00:27:16;;;;;;;;;;;16.20;62.80;;;;;;10285585;28;89996;-42
2023/12/15 00:32:17;;;;;;;;;;;16.10;62.80;;;;;;10285514;28;89641;-44
2023/12/15 00:37:20;;;;;;;;;;;16.10;62.90;;;;;;10285895;28;90041;-47
2023/12/15 00:42:22;;;;;;;;;;;16.10;62.90;;;;;;10291592;28;89037;-42
2023/12/15 00:47:23;;;;;;;;;;;16.10;63.00;;;;;;10290532;28;89176;-42
2023/12/15 00:52:25;;;;;;;;;;;16.10;62.90;;;;;;10293797;28;88271;-42
2023/12/15 00:57:27;;;;;;;;;;;16.10;62.90;;;;;;10285330;28;90006;-47
2023/12/15 01:02:29;;;;;;;;;;;16.00;62.90;;;;;;10285941;28;88942;-42
2023/12/15 01:07:31;;;;;;;;;;;16.00;63.00;;;;;;10289816;28;89833;-47
2023/12/15 01:12:33;;;;;;;;;;;16.00;63.00;;;;;;10292386;28;89065;-44
2023/12/15 01:17:35;;;;;;;;;;;16.00;63.00;;;;;;10290586;28;88639;-42
2023/12/15 01:22:37;;;;;;;;;;;16.00;63.00;;;;;;10278443;28;89841;-42
2023/12/15 01:27:39;;;;;;;;;;;16.00;62.90;;;;;;10299626;28;89088;-42
2023/12/15 01:32:40;;;;;;;;;;;16.00;62.80;;;;;;10289671;28;89065;-46
2023/12/15 01:37:42;;;;;;;;;;;16.10;62.60;;;;;;10290365;28;89380;-45
2023/12/15 01:42:44;;;;;;;;;;;16.10;62.40;;;;;;10291675;28;89568;-50
2023/12/15 01:47:46;;;;;;;;;;;16.10;62.20;;;;;;10291411;28;89064;-59
2023/12/15 01:52:48;;;;;;;;;;;16.20;62.20;;;;;;10289619;28;90182;-42
2023/12/15 01:57:49;;;;;;;;;;;16.20;62.30;;;;;;10283850;28;90321;-43
2023/12/15 02:02:51;;;;;;;;;;;16.20;62.30;;;;;;10672826;22;91449;-47
2023/12/15 02:07:53;;;;;;;;;;;16.10;62.20;;;;;;10258796;28;91716;-47
2023/12/15 02:12:55;;;;;;;;;;;16.10;62.10;;;;;;10291807;28;90262;-45
2023/12/15 02:17:57;;;;;;;;;;;16.10;62.20;;;;;;10272612;28;89205;-45
2023/12/15 02:22:59;;;;;;;;;;;16.10;62.20;;;;;;10273632;28;89201;-50
2023/12/15 02:28:01;;;;;;;;;;;16.10;62.20;;;;;;10276825;28;88648;-46
2023/12/15 02:33:03;;;;;;;;;;;16.10;62.20;;;;;;10263488;28;89522;-49
2023/12/15 02:38:07;;;;;;;;;;;16.00;62.20;;;;;;10277381;28;90655;-48
2023/12/15 02:43:09;;;;;;;;;;;16.00;62.20;;;;;;10251966;28;89018;-49
2023/12/15 02:48:11;;;;;;;;;;;16.00;62.30;;;;;;10263225;28;93617;-48
2023/12/15 02:53:14;;;;;;;;;;;16.00;62.40;;;;;;10280240;28;90374;-50
2023/12/15 02:58:16;;;;;;;;;;;16.00;62.50;;;;;;10265291;28;89628;-46
2023/12/15 03:03:18;;;;;;;;;;;15.90;62.40;;;;;;10267435;28;89602;-48
2023/12/15 03:08:19;;;;;;;;;;;15.90;62.40;;;;;;10253713;28;88988;-50
2023/12/15 03:13:21;;;;;;;;;;;15.90;62.50;;;;;;10280320;28;90041;-48
2023/12/15 03:18:23;;;;;;;;;;;15.90;62.70;;;;;;10257037;28;90058;-49
2023/12/15 03:23:25;;;;;;;;;;;15.90;62.60;;;;;;10250044;28;89562;-46
2023/12/15 03:28:26;;;;;;;;;;;15.90;62.60;;;;;;10260359;28;90198;-47
2023/12/15 03:33:32;;;;;;;;;;;16.00;62.40;;;;;;10262033;28;90195;-46
2023/12/15 03:38:34;;;;;;;;;;;16.00;62.20;;;;;;10261233;28;90630;-49
2023/12/15 03:43:36;;;;;;;;;;;16.00;62.10;;;;;;10275531;28;88984;-46
2023/12/15 03:48:38;;;;;;;;;;;16.10;62.10;;;;;;10264151;28;89225;-45
2023/12/15 03:53:40;;;;;;;;;;;16.00;62.00;;;;;;10274716;28;90700;-46
2023/12/15 03:58:42;;;;;;;;;;;16.00;62.00;;;;;;10274837;28;90157;-46
2023/12/15 04:03:43;;;;;;;;;;;16.00;62.00;;;;;;10267950;28;89981;-45
2023/12/15 04:08:45;;;;;;;;;;;16.00;62.10;;;;;;10277038;28;90287;-47
2023/12/15 04:13:47;;;;;;;;;;;16.00;62.20;;;;;;10270676;28;90033;-47
2023/12/15 04:18:49;;;;;;;;;;;15.90;62.10;;;;;;10285372;28;90325;-48
2023/12/15 04:23:51;;;;;;;;;;;15.90;62.10;;;;;;10259756;28;89997;-51
2023/12/15 04:28:53;;;;;;;;;;;15.90;62.30;;;;;;10273224;28;90749;-49
2023/12/15 04:33:55;;;;;;;;;;;15.90;62.30;;;;;;10280481;28;90215;-48
2023/12/15 04:38:56;;;;;;;;;;;15.90;62.30;;;;;;10259175;28;88906;-48
2023/12/15 04:43:58;;;;;;;;;;;15.80;62.40;;;;;;10275229;28;89000;-47
2023/12/15 04:49:00;;;;;;;;;;;15.80;62.40;;;;;;10258825;28;89682;-48
2023/12/15 04:54:02;;;;;;;;;;;15.80;62.50;;;;;;10272502;28;88957;-47
2023/12/15 04:59:03;;;;;;;;;;;15.80;62.50;;;;;;10279825;28;89004;-48
2023/12/15 05:04:05;;;;;;;;;;;15.70;62.60;;;;;;10271696;28;89554;-46
2023/12/15 05:09:09;;;;;;;;;;;15.70;62.50;;;;;;10280893;28;90588;-47
2023/12/15 05:14:10;;;;;;;;;;;15.80;62.60;;;;;;10276515;28;90198;-46
2023/12/15 05:19:12;;;;;;;;;;;15.80;62.50;;;;;;10276899;28;90547;-47
2023/12/15 05:24:15;;;;;;;;;;;15.90;62.30;;;;;;10265080;28;89243;-46
2023/12/15 05:29:16;;;;;;;;;;;15.90;62.10;;;;;;10283482;28;89541;-46
2023/12/15 05:34:18;;;;;;;;;;;15.90;62.10;;;;;;10276598;28;89701;-47
2023/12/15 05:39:20;;;;;;;;;;;15.90;62.10;;;;;;10276996;28;88649;-47
2023/12/15 05:44:22;;;;;;;;;;;15.90;62.20;;;;;;10281163;28;90056;-49
2023/12/15 05:49:24;;;;;;;;;;;16.00;62.20;;;;;;10273180;28;89891;-45
2023/12/15 05:54:25;;;;;;;;;;;16.10;62.10;;;;;;10282377;28;89279;-46
2023/12/15 05:59:27;;;;;;;;;;;16.30;61.80;;;;;;10280743;28;90310;-45
2023/12/15 06:04:29;;;;;;;;;;;16.40;61.40;;;;;;10272670;28;89828;-46
2023/12/15 06:09:31;;;;;;;;;;;16.50;61.20;;;;;;10286304;28;90390;-46
2023/12/15 06:14:39;;;;;;;;;;;16.60;61.00;;;;;;10270330;28;90220;-48
2023/12/15 06:19:41;;;;;;;;;;;16.70;60.90;;;;;;10282357;28;89075;-46
2023/12/15 06:24:42;;;;;;;;;;;16.90;60.70;;;;;;10273227;28;89401;-49
2023/12/15 06:29:44;;;;;;;;;;;16.90;60.50;;;;;;10279180;28;89086;-49
2023/12/15 06:34:46;;;;;;;;;;;16.90;60.40;;;;;;10266016;28;90059;-52
2023/12/15 06:39:50;;;;;;;;;;;16.90;60.50;;;;;;10269720;28;88802;-50
2023/12/15 06:44:51;;;;;;;;;;;16.90;60.70;;;;;;10277663;28;89016;-50
2023/12/15 06:49:53;;;;;;;;;;;16.90;60.80;;;;;;10272428;28;89626;-47
2023/12/15 06:54:55;;;;;;;;;;;16.90;61.30;;;;;;10279376;28;89592;-49
2023/12/15 06:59:57;;;;;;;;;;;17.00;62.30;;;;;;10274429;28;90665;-48
2023/12/15 07:04:58;;;;;;;;;;;17.00;63.80;;;;;;10259955;28;88980;-49
2023/12/15 07:10:01;;;;;;;;;;;17.00;63.50;;;;;;10263078;28;89015;-46
2023/12/15 07:15:03;;;;;;;;;;;17.00;63.80;;;;;;10277783;28;88606;-46
2023/12/15 07:20:05;;;;;;;;;;;17.00;63.30;;;;;;10268674;28;89368;-48
2023/12/15 07:25:07;;;;;;;;;;;17.00;63.00;;;;;;10279708;28;88373;-47
2023/12/15 07:30:09;;;;;;;;;;;17.00;62.90;;;;;;10270929;28;89570;-48
2023/12/15 07:35:11;;;;;;;;;;;17.00;62.90;;;;;;10280256;28;89162;-51
2023/12/15 07:40:29;;;;;;;;;;;16.90;62.90;;;;;;10253633;28;89024;-47
2023/12/15 07:45:31;;;;;;;;;;;16.90;63.00;;;;;;10247480;28;89505;-49
2023/12/15 07:50:33;;;;;;;;;;;16.80;63.20;;;;;;10282334;28;89709;-51
2023/12/15 07:55:35;;;;;;;;;;;16.80;63.30;;;;;;10267942;28;89953;-41
2023/12/15 08:00:38;;;;;;;;;;;16.90;63.10;;;;;;10288429;28;110371;-43
2023/12/15 08:05:40;;;;;;;;;;;16.90;63.10;;;;;;10268129;28;89179;-42
2023/12/15 08:10:42;;;;;;;;;;;16.90;63.00;;;;;;10280599;28;89923;-46
2023/12/15 08:15:44;;;;;;;;;;;16.80;63.00;;;;;;10273345;28;90046;-47
2023/12/15 08:20:47;;;;;;;;;;;16.80;63.00;;;;;;10275054;28;89367;-49
2023/12/15 08:25:49;;;;;;;;;;;16.80;63.00;;;;;;10274287;28;89391;-51
2023/12/15 08:30:51;;;;;;;;;;;16.80;62.90;;;;;;10264018;28;90067;-51
2023/12/15 08:35:53;;;;;;;;;;;16.80;62.80;;;;;;10271075;28;90320;-48
2023/12/15 08:40:55;;;;;;;;;;;16.80;62.70;;;;;;10260644;28;89767;-49
2023/12/15 08:45:56;;;;;;;;;;;16.80;62.70;;;;;;10260076;28;89501;-47
2023/12/15 08:50:58;;;;;;;;;;;16.70;62.80;;;;;;10270961;28;89047;-47
2023/12/15 08:56:00;;;;;;;;;;;16.70;62.80;;;;;;10282829;28;89167;-50
2023/12/15 09:01:02;;;;;;;;;;;16.80;62.70;;;;;;10264476;28;88522;-48
2023/12/15 09:06:04;;;;;;;;;;;16.80;62.60;;;;;;10281707;28;90228;-46
2023/12/15 09:11:26;;;;;;;;;;;16.80;62.50;;;;;;10276902;28;90349;-53
2023/12/15 09:16:27;;;;;;;;;;;16.70;62.50;;;;;;10266917;28;88641;-47
2023/12/15 09:21:29;;;;;;;;;;;16.70;62.50;;;;;;10255834;28;89657;-47
2023/12/15 09:26:31;;;;;;;;;;;16.70;62.60;;;;;;10266097;28;90031;-50
2023/12/15 09:31:33;;;;;;;;;;;16.80;62.60;;;;;;10285567;28;89753;-46
2023/12/15 09:36:35;;;;;;;;;;;16.80;62.40;;;;;;10261189;28;89577;-47
2023/12/15 09:41:37;;;;;;;;;;;16.80;62.40;;;;;;10264771;28;89303;-47
2023/12/15 09:46:39;;;;;;;;;;;16.80;62.40;;;;;;10261516;28;89206;-47
2023/12/15 09:51:45;;;;;;;;;;;16.70;62.30;;;;;;10286301;28;90057;-49
2023/12/15 09:56:47;;;;;;;;;;;16.70;62.50;;;;;;10272892;28;90214;-49
2023/12/15 10:01:49;;;;;;;;;;;16.80;62.40;;;;;;10264517;28;90032;-50
2023/12/15 10:06:52;;;;;;;;;;;16.90;62.30;;;;;;10284080;28;89108;-47
2023/12/15 10:11:54;;;;;;;;;;;16.80;62.20;;;;;;10276185;28;90167;-52
2023/12/15 10:16:55;;;;;;;;;;;16.90;62.20;;;;;;10276398;28;89497;-49
2023/12/15 10:21:57;;;;;;;;;;;16.80;62.20;;;;;;10269061;28;90730;-47
2023/12/15 10:27:03;;;;;;;;;;;16.80;63.30;;;;;;10283257;28;90742;-49
2023/12/15 10:32:05;;;;;;;;;;;16.90;62.30;;;;;;10273833;28;90039;-51
2023/12/15 10:37:07;;;;;;;;;;;16.80;62.10;;;;;;10275898;28;89915;-48
2023/12/15 10:42:09;;;;;;;;;;;16.80;62.00;;;;;;10273740;28;91768;-47
2023/12/15 10:47:11;;;;;;;;;;;16.90;62.20;;;;;;10274848;28;90083;-47
2023/12/15 10:52:16;;;;;;;;;;;17.00;62.10;;;;;;10271988;28;90272;-46
2023/12/15 10:57:19;;;;;;;;;;;17.20;61.90;;;;;;10265356;28;88973;-52
2023/12/15 11:02:21;;;;;;;;;;;17.40;61.60;;;;;;10261338;28;90295;-45
2023/12/15 11:07:24;;;;;;;;;;;17.50;61.10;;;;;;10274848;28;88632;-46
2023/12/15 11:12:30;;;;;;;;;;;17.60;61.00;;;;;;10280496;28;89718;-50
2023/12/15 11:17:32;;;;;;;;;;;17.60;60.80;;;;;;10285275;28;89023;-47
2023/12/15 11:22:41;;;;;;;;;;;17.60;60.90;;;;;;10271565;28;90265;-48
2023/12/15 11:28:03;;;;;;;;;;;17.60;60.80;;;;;;10275232;28;89120;-48
2023/12/15 11:33:19;;;;;;;;;;;17.60;61.00;;;;;;10280510;28;89016;-51
2023/12/15 11:38:21;;;;;;;;;;;17.60;61.00;;;;;;10262016;28;90194;-46
2023/12/15 11:43:26;;;;;;;;;;;17.60;60.80;;;;;;10261609;28;88175;-51
2023/12/15 11:48:27;;;;;;;;;;;17.60;60.80;;;;;;10298980;28;89075;-46
2023/12/15 11:53:30;;;;;;;;;;;17.60;60.90;;;;;;10290668;28;88212;-47
2023/12/15 11:58:32;;;;;;;;;;;17.60;61.00;;;;;;10273346;28;89053;-46
2023/12/15 12:03:36;;;;;;;;;;;17.60;60.90;;;;;;10270255;28;89961;-46
2023/12/15 12:08:39;;;;;;;;;;;17.70;60.90;;;;;;10273721;28;89050;-47
2023/12/15 12:13:41;;;;;;;;;;;17.70;60.90;;;;;;10257214;28;89517;-46
2023/12/15 12:18:44;;;;;;;;;;;17.70;60.70;;;;;;10264559;28;90001;-47
2023/12/15 12:23:47;;;;;;;;;;;17.70;60.70;;;;;;10267244;28;89964;-50
2023/12/15 12:28:51;;;;;;;;;;;17.70;60.80;;;;;;10271206;28;89998;-50
2023/12/15 12:33:53;;;;;;;;;;;17.70;60.90;;;;;;10268576;28;89005;-50
2023/12/15 12:38:55;;;;;;;;;;;17.70;60.80;;;;;;10277726;28;89375;-50
2023/12/15 12:43:57;;;;;;;;;;;17.80;60.90;;;;;;10284635;28;90034;-47
2023/12/15 12:48:59;;;;;;;;;;;17.70;61.50;;;;;;10273659;28;89939;-51
2023/12/15 12:54:02;;;;;;;;;;;17.70;61.60;;;;;;10283205;28;89898;-49
2023/12/15 12:59:03;;;;;;;;;;;17.70;61.50;;;;;;10276326;28;89098;-49
2023/12/15 13:04:06;;;;;;;;;;;17.70;61.40;;;;;;10273847;28;89310;-49
2023/12/15 13:09:08;;;;;;;;;;;17.70;61.30;;;;;;10270896;28;89171;-50
2023/12/15 13:14:10;;;;;;;;;;;17.70;61.20;;;;;;10258431;28;88721;-50
2023/12/15 13:19:12;;;;;;;;;;;17.60;61.10;;;;;;10271862;28;88979;-50
2023/12/15 13:24:15;;;;;;;;;;;17.60;61.00;;;;;;10288231;28;90254;-47
2023/12/15 13:29:16;;;;;;;;;;;17.60;61.00;;;;;;10274122;28;88933;-47
2023/12/15 13:34:18;;;;;;;;;;;17.50;61.00;;;;;;10264617;28;90125;-49
2023/12/15 13:39:21;;;;;;;;;;;17.50;61.10;;;;;;10267081;28;92732;-49
2023/12/15 13:44:25;;;;;;;;;;;17.50;61.20;;;;;;10279790;28;91000;-48
2023/12/15 13:49:27;;;;;;;;;;;17.50;61.10;;;;;;10278607;28;89108;-51
2023/12/15 13:54:29;;;;;;;;;;;17.50;61.10;;;;;;10274599;28;90198;-50
2023/12/15 13:59:31;;;;;;;;;;;17.50;61.10;;;;;;10287859;28;90040;-50
2023/12/15 14:04:33;;;;;;;;;;;17.60;61.00;;;;;;10275755;28;90131;-51
2023/12/15 14:09:35;;;;;;;;;;;17.60;60.90;;;;;;10275402;28;88961;-49
2023/12/15 14:14:37;;;;;;;;;;;17.60;60.80;;;;;;10264266;28;90203;-46
2023/12/15 14:19:38;;;;;;;;;;;17.50;60.90;;;;;;10267038;28;88542;-47
2023/12/15 14:24:41;;;;;;;;;;;17.50;61.70;;;;;;10266538;28;90092;-49
2023/12/15 14:29:43;;;;;;;;;;;17.60;61.90;;;;;;10280039;28;89529;-45
2023/12/15 14:34:48;;;;;;;;;;;17.60;62.00;;;;;;10279977;28;90252;-45
2023/12/15 14:39:50;;;;;;;;;;;17.50;61.70;;;;;;10265909;28;90142;-48
2023/12/15 14:44:52;;;;;;;;;;;17.50;61.90;;;;;;10264003;28;89563;-49
2023/12/15 14:49:53;;;;;;;;;;;17.60;61.80;;;;;;10262347;28;90695;-50
2023/12/15 14:54:55;;;;;;;;;;;17.60;62.30;;;;;;10268188;28;88603;-47
2023/12/15 14:59:57;;;;;;;;;;;17.60;62.40;;;;;;10254023;28;90363;-46
2023/12/15 15:04:59;;;;;;;;;;;17.50;62.50;;;;;;10269717;28;89636;-45
2023/12/15 15:10:02;;;;;;;;;;;17.50;62.90;;;;;;10277569;28;88811;-46
2023/12/15 15:15:04;;;;;;;;;;;17.50;62.90;;;;;;10272238;28;89050;-47
2023/12/15 15:20:05;;;;;;;;;;;17.50;63.00;;;;;;10279458;28;90047;-46
2023/12/15 15:25:07;;;;;;;;;;;17.50;63.10;;;;;;10272653;28;90171;-45
2023/12/15 15:30:09;;;;;;;;;;;17.40;63.00;;;;;;10273554;28;90496;-45
2023/12/15 15:35:12;;;;;;;;;;;17.50;63.30;;;;;;10261780;28;89900;-47
2023/12/15 15:40:14;;;;;;;;;;;17.50;63.30;;;;;;10271025;28;89953;-44
2023/12/15 15:45:15;;;;;;;;;;;17.50;63.30;;;;;;10271539;28;88460;-45
2023/12/15 15:50:18;;;;;;;;;;;17.40;63.20;;;;;;10256959;28;90067;-50
2023/12/15 15:55:20;;;;;;;;;;;17.50;63.30;;;;;;10269678;28;89158;-51
2023/12/15 16:00:22;;;;;;;;;;;17.50;63.50;;;;;;10272349;28;89805;-51
2023/12/15 16:05:25;;;;;;;;;;;17.40;63.60;;;;;;10272458;28;91567;-48
2023/12/15 16:10:26;;;;;;;;;;;17.50;65.80;;;;;;10275589;28;89730;-49
2023/12/15 16:15:28;;;;;;;;;;;17.60;64.90;;;;;;10261837;28;90356;-52
2023/12/15 16:20:30;;;;;;;;;;;17.70;68.60;;;;;;10267242;28;90019;-64
2023/12/15 16:25:32;;;;;;;;;;;18.00;69.50;;;;;;10260729;28;89288;-52
2023/12/15 16:30:34;;;;;;;;;;;18.20;71.00;;;;;;10267083;28;88869;-51
2023/12/15 16:35:35;;;;;;;;;;;18.40;69.40;;;;;;10256803;28;90130;-50
2023/12/15 16:40:37;;;;;;;;;;;18.60;69.50;;;;;;10294753;28;88973;-49
2023/12/15 16:45:39;;;;;;;;;;;18.70;68.30;;;;;;10275256;28;89365;-52
2023/12/15 16:50:40;;;;;;;;;;;18.70;68.00;;;;;;10269341;28;89766;-52
2023/12/15 16:55:42;;;;;;;;;;;18.70;68.10;;;;;;10263236;28;90221;-54
2023/12/15 17:00:44;;;;;;;;;;;18.60;68.00;;;;;;10262791;28;89657;-52
2023/12/15 17:05:46;;;;;;;;;;;18.50;67.90;;;;;;10260384;28;90070;-53
2023/12/15 17:10:48;;;;;;;;;;;18.50;68.00;;;;;;10265835;28;89417;-50
2023/12/15 17:15:50;;;;;;;;;;;18.40;67.90;;;;;;10292492;28;90010;-51
2023/12/15 17:20:51;;;;;;;;;;;18.40;68.10;;;;;;10266033;28;89800;-52
2023/12/15 17:25:53;;;;;;;;;;;18.30;68.10;;;;;;10270877;28;89815;-48
2023/12/15 17:30:54;;;;;;;;;;;18.30;68.20;;;;;;10272369;28;89052;-48
2023/12/15 17:35:57;;;;;;;;;;;18.30;68.20;;;;;;10274383;28;88851;-50
2023/12/15 17:40:58;;;;;;;;;;;18.30;68.20;;;;;;10261247;28;89461;-52
2023/12/15 17:46:00;;;;;;;;;;;18.30;68.20;;;;;;10274518;28;89978;-53
2023/12/15 17:51:02;;;;;;;;;;;18.20;68.20;;;;;;10278980;28;89263;-52
2023/12/15 17:56:04;;;;;;;;;;;18.20;68.10;;;;;;10271727;28;90716;-54
2023/12/15 18:01:06;;;;;;;;;;;18.20;68.50;;;;;;10272191;28;90013;-52
2023/12/15 18:06:08;;;;;;;;;;;18.20;68.40;;;;;;10270704;28;90518;-53
2023/12/15 18:11:10;;;;;;;;;;;18.30;68.20;;;;;;10274447;28;88908;-52
2023/12/15 18:16:11;;;;;;;;;;;18.30;68.20;;;;;;10267761;28;90313;-48
2023/12/15 18:21:13;;;;;;;;;;;18.20;68.10;;;;;;10274815;28;89882;-50
2023/12/15 18:26:16;;;;;;;;;;;18.20;68.20;;;;;;10276240;28;89789;-54
2023/12/15 18:31:18;;;;;;;;;;;18.20;68.30;;;;;;10276612;28;90044;-52
2023/12/15 18:36:20;;;;;;;;;;;18.20;68.20;;;;;;10273600;28;89962;-62
2023/12/15 18:41:22;;;;;;;;;;;18.30;68.20;;;;;;10271681;28;90282;-51
2023/12/15 18:46:24;;;;;;;;;;;18.30;68.20;;;;;;10277276;28;91654;-50
2023/12/15 18:51:26;;;;;;;;;;;18.20;68.20;;;;;;10281221;28;89673;-51
2023/12/15 18:56:27;;;;;;;;;;;18.20;68.20;;;;;;10272081;28;90003;-51
2023/12/15 19:01:29;;;;;;;;;;;18.30;68.20;;;;;;10266509;28;89053;-47
2023/12/15 19:06:31;;;;;;;;;;;18.30;68.20;;;;;;10272908;28;88976;-52
2023/12/15 19:11:33;;;;;;;;;;;18.30;68.20;;;;;;10275706;28;89353;-52
2023/12/15 19:16:35;;;;;;;;;;;18.20;69.60;;;;;;10262765;28;88985;-49
2023/12/15 19:21:37;;;;;;;;;;;18.30;69.70;;;;;;10267599;28;89775;-50
2023/12/15 19:26:39;;;;;;;;;;;18.30;69.10;;;;;;10277139;28;89373;-54
2023/12/15 19:31:41;;;;;;;;;;;18.30;68.90;;;;;;10281412;28;89431;-50
2023/12/15 19:36:43;;;;;;;;;;;18.20;68.80;;;;;;10267431;28;91020;-52
2023/12/15 19:41:46;;;;;;;;;;;18.20;68.80;;;;;;10291995;28;89064;-49
2023/12/15 19:46:48;;;;;;;;;;;18.20;69.00;;;;;;10267749;28;90822;-52
2023/12/15 19:51:50;;;;;;;;;;;18.20;68.20;;;;;;10287629;28;90085;-52
2023/12/15 19:56:52;;;;;;;;;;;18.20;68.90;;;;;;10275951;28;89349;-52
2023/12/15 20:02:02;;;;;;;;;;;18.20;68.60;;;;;;10284636;28;89586;-53
2023/12/15 20:07:05;;;;;;;;;;;18.20;68.50;;;;;;10259963;28;90076;-51
2023/12/15 20:12:07;;;;;;;;;;;18.20;68.50;;;;;;10268082;28;90508;-49
2023/12/15 20:17:08;;;;;;;;;;;18.20;68.50;;;;;;10271279;28;90144;-54
2023/12/15 20:22:10;;;;;;;;;;;18.20;68.10;;;;;;10272570;28;89796;-51
2023/12/15 20:27:12;;;;;;;;;;;18.20;68.10;;;;;;10265881;28;90235;-51
2023/12/15 20:32:14;;;;;;;;;;;18.30;68.10;;;;;;10275029;28;88479;-52
2023/12/15 20:37:15;;;;;;;;;;;18.40;67.80;;;;;;10273397;28;88993;-51
2023/12/15 20:42:17;;;;;;;;;;;18.40;67.60;;;;;;10262731;28;89160;-53
2023/12/15 20:47:19;;;;;;;;;;;18.40;67.50;;;;;;10279334;28;90270;-60
2023/12/15 20:52:21;;;;;;;;;;;18.30;67.40;;;;;;10270891;28;89072;-53
2023/12/15 20:57:22;;;;;;;;;;;18.30;67.50;;;;;;10277433;28;90105;-53
2023/12/15 21:02:25;;;;;;;;;;;18.20;67.50;;;;;;10277984;28;89089;-52
2023/12/15 21:07:27;;;;;;;;;;;18.20;67.50;;;;;;10272428;28;89058;-48
2023/12/15 21:12:29;;;;;;;;;;;18.10;67.60;;;;;;10283920;28;89879;-54
2023/12/15 21:17:31;;;;;;;;;;;18.00;67.60;;;;;;10274558;28;90030;-50
2023/12/15 21:22:33;;;;;;;;;;;18.00;68.00;;;;;;10274270;28;91180;-55
2023/12/15 21:27:34;;;;;;;;;;;17.90;68.00;;;;;;10279483;28;88902;-49
2023/12/15 21:32:36;;;;;;;;;;;17.90;68.00;;;;;;10276556;28;89242;-52
2023/12/15 21:37:38;;;;;;;;;;;17.90;68.10;;;;;;10274538;28;89103;-52
2023/12/15 21:42:40;;;;;;;;;;;17.80;68.00;;;;;;10271969;28;89015;-48
2023/12/15 21:47:42;;;;;;;;;;;17.80;68.00;;;;;;10280747;28;93163;-50
2023/12/15 21:52:44;;;;;;;;;;;17.80;68.00;;;;;;10271198;28;89280;-50
2023/12/15 21:57:46;;;;;;;;;;;17.70;68.20;;;;;;10266040;28;89947;-53
2023/12/15 22:02:48;;;;;;;;;;;17.70;68.30;;;;;;10275888;28;90549;-52
2023/12/15 22:07:50;;;;;;;;;;;17.70;68.20;;;;;;10263734;28;91197;-52
2023/12/15 22:12:51;;;;;;;;;;;17.60;68.40;;;;;;10270161;28;89992;-51
2023/12/15 22:17:53;;;;;;;;;;;17.60;68.40;;;;;;10290424;28;89712;-54
2023/12/15 22:22:55;;;;;;;;;;;17.60;68.50;;;;;;10288961;28;89014;-51
2023/12/15 22:27:57;;;;;;;;;;;17.50;68.60;;;;;;10287840;28;89373;-50
2023/12/15 22:32:59;;;;;;;;;;;17.50;68.60;;;;;;10278570;28;89970;-52
2023/12/15 22:38:01;;;;;;;;;;;17.50;68.60;;;;;;10283904;28;89877;-53
2023/12/15 22:43:03;;;;;;;;;;;17.40;68.60;;;;;;10275755;28;89046;-53
2023/12/15 22:48:05;;;;;;;;;;;17.40;68.40;;;;;;10280186;28;90144;-52
2023/12/15 22:53:07;;;;;;;;;;;17.30;68.40;;;;;;10275503;28;89460;-51
2023/12/15 22:58:09;;;;;;;;;;;17.30;68.30;;;;;;10277194;28;90185;-51
2023/12/15 23:03:11;;;;;;;;;;;17.30;68.30;;;;;;10266628;28;90096;-51
2023/12/15 23:08:13;;;;;;;;;;;17.20;68.20;;;;;;10280926;28;90398;-50
2023/12/15 23:13:14;;;;;;;;;;;17.20;68.30;;;;;;10292068;28;90036;-48
2023/12/15 23:18:16;;;;;;;;;;;17.10;68.10;;;;;;10268063;28;90083;-49
2023/12/15 23:23:18;;;;;;;;;;;17.10;68.10;;;;;;10263784;28;89025;-52
2023/12/15 23:28:20;;;;;;;;;;;17.10;68.10;;;;;;10283571;28;89098;-53
2023/12/15 23:33:22;;;;;;;;;;;17.00;68.00;;;;;;10286587;28;89424;-49
2023/12/15 23:38:24;;;;;;;;;;;17.00;68.00;;;;;;10270368;28;90182;-47
2023/12/15 23:43:25;;;;;;;;;;;17.00;68.00;;;;;;10263151;28;90091;-48
2023/12/15 23:48:27;;;;;;;;;;;16.90;67.90;;;;;;10276876;28;90718;-48
2023/12/15 23:53:29;;;;;;;;;;;16.90;67.80;;;;;;10268453;28;90103;-53
2023/12/15 23:58:31;;;;;;;;;;;16.90;67.80;;;;;;10269651;28;89007;-53
